Tieton, WA

2:59 PM PDT on October 21, 2014 (GMT -0700)
Tieton, WA | Change Station
CLOSE
Current Station
Personal Weather Station
Location: Tieton, WA
Elevation: 1970 ft
Nearby Weather Stations

Elev 1970 ft 46.71 °N, 120.72 °W | Updated 4 seconds ago

Partly Cloudy
Partly Cloudy
62.0 °F
Feels Like 62.0 °F
N
2.7
Wind Variable Wind from East
Gusts 3.5 mph

Today
High -- | Low -- °F
--% Chance of Precip.
Yesterday
High -- | Low -- °F
Precip. -- in
7:29 AM 6:05 PM
Waning Crescent, 4% visible
Pressure 29.91 in
Visibility 10.0 miles
Clouds Mostly Cloudy 8000 ft
Dew Point 45 °F
Humidity 53%
Rainfall 0.00 in
Snow Depth Not available.
UV 1 out of 12
Pollen 1.40 out of 12
Air Quality Not available.
Flu Activity Sporadic
METAR KYKM 212153Z 20014G23KT 10SM BKN080 18/06 A2990 RMK AO2 RAB25E49 SLP127 P0000 T01830056

More Conditions Fewer Conditions

Pressure 29.91 in
Visibility 10.0 miles
Clouds Mostly Cloudy 8000 ft
Dew Point 45 °F
Humidity 53%
Rainfall 0.00 in
Snow Depth Not available.
UV 1 out of 12
Pollen 1.40 out of 12
Air Quality Not available.
Flu Activity Sporadic
METAR KYKM 212153Z 20014G23KT 10SM BKN080 18/06 A2990 RMK AO2 RAB25E49 SLP127 P0000 T01830056

More Conditions Fewer Conditions

10-Day Weather Forecast

Almanac

Astronomy

Oct. 21, 2014 Rise Set
Actual Time 7:29 AM PDT 6:05 PM PDT
Civil Twilight 6:58 AM PDT 6:35 PM PDT
Nautical Twilight 6:23 AM PDT 7:11 PM PDT
Astronomical Twilight 5:48 AM PDT 7:46 PM PDT
Moon 5:10 AM PDT 5:07 PM PDT
Length of Visible Light 11h 37m
Length of Day
10h 35m
Tomorrow will be 3m 9s shorter.
Waning Crescent, 4% of the Moon is Illuminated
Today
Waning Crescent
Oct 23
New
Oct 30
First Quarter
Nov 6
Full
Nov 14
Last Quarter

Today's Extremes

State Highs State Lows

Community

WunderPhotos

Upload Photos

1,763,785 photos uploaded!

Nearby

Snow Depth

Station Depth Elevation
Bumping Ridge 0 in 4600 ft
Lost Horse 0 in 5000 ft
White Pass E.S. 0 in 4500 ft
Pigtail Peak 0 in 5900 ft
Morse Lake 0 in 5400 ft

Earthquake Activity

City Distance Mag. Time & Date
No recent earthquake activity has been reported nearby.
Minimum magnitude displayed is 2.5.

Coastal Water Temperatures

Place Temperature
No Stations Reporting

Nearby Weather Stations